Allenstown, New Hampshire
Current Conditions -  °F | °C
As of 9:51 PM on Monday 20 Oct 2014 (Local Time) from KCON Reporting Station
Overcast Overcast  
Wind Chill: 50°   Ceiling: 11000
Heat Index: 50°   Visibility: 10mi
Dew Point: 36°   Wind: 6mph
Humidity: 59%   Direction: 200°SSW
Pressure: 29.98"   Gusts: NA
Location:  43.1606°N, 71.4143°W
Report Text: KCON 210151Z AUTO 20005KT 10SM OVC110 10/02 A2998 RMK AO2 SLP154 T01000022
Loading
Personal Weather Stations






























Interactive Weather Map
Tropical Storm Tracking
New forecast layout! Learn more

10-Day Weather Forecast

Advertisements
Track Severe Weather on mobile